Aeroporto :
LOGIN :

Iscrizione | Disclaimer

   EN    FR    IT 

 










Sommario :    VFR   VFR Marginale   IFR   IFR Intensivo   IFR Molto Intensivo
Visibilità : 
Base nubi : 
>= 8 km
>= 3000ft
5 / 8 km
1000 / 3000 ft
1500m / 5 km
500 / 1000 ft
800 / 1500m
200 / 500 ft
< 800m
< 200 ft
Simboli :   Temporali  Nebbia  Neve Forte  Precipitazioni Forti  Vento > 20 kt
SIGMETs :   Varie  Temporali  Ghiacco  Turbolenza  Onda orograficha  Ceneri Vulcaniche






- Altitudine del aeroporto : 96 ft
- Codice IATA : REG


LICR - Reggio Calabria

ULTIMO METAR :
  • 031850Z 36006KT 9999 SCT040 13/09 Q1008

METARs OBSOLETI :
  • 031750Z 36010KT 9999 SCT040 13/09 Q1008
  • 031650Z 35009KT 9999 SCT040 13/08 Q1008

TAF TAF LICR
Valido dal 03 a 18 ore il 04 a 18 ore UTC


031700Z 0318/0418 01010KT 9999 BKN040
TEMPO 0318/0324 RA
BECMG 0408/0410 35016G26KT



MetMap, La meteo Aeronautica in un colpo d'occhio ! - Copyright ORBIFLY Dicembre 2007 - Disclaimer

ORBIFLY MET'MAP TEAM :

Programmazione e sviluppo : Alexandra Zaïnal
Concezione : Baudouin d'Aumeries
Aiuto per la programmazione : Marc-Olivier Méhu
Supporto tecnico e logistico : Manuel Goepfert
Aiuto per la traduzione : Arnaldo La Scala

Contatto : metmap@orbifly.com




FONTI E CREDITI :

   NOAA